Time;durP1;ratioP1;P1;durP2;ratioP2;P2;SDS_P1;SDS_P2;PMS_P1;PMS_P2;Temp;Humidity;BMP_temperature;BMP_pressure;BME280_temperature;BME280_humidity;BME280_pressure;Samples;Min_cycle;Max_cycle;Signal;HPM_P1;HPM_P2
2022/05/25 00:01:49;;;;;;;5.20;0.65;;;10.40;77.20;;;;;;4896435;29;20044;-77
2022/05/25 00:04:18;;;;;;;2.22;0.80;;;10.40;77.20;;;;;;4897969;29;20067;-76
2022/05/25 00:06:46;;;;;;;2.78;0.88;;;10.40;77.30;;;;;;4880755;29;20053;-77
2022/05/25 00:09:14;;;;;;;2.40;0.70;;;10.40;77.20;;;;;;4897923;29;20056;-77
2022/05/25 00:11:42;;;;;;;1.20;0.52;;;10.40;77.20;;;;;;4898423;29;20064;-77
2022/05/25 00:14:10;;;;;;;1.48;0.40;;;10.40;77.10;;;;;;4897649;29;20406;-77
2022/05/25 00:16:38;;;;;;;2.78;0.52;;;10.50;77.10;;;;;;4898254;29;20398;-77
2022/05/25 00:22:09;;;;;;;5.88;0.70;;;10.50;76.80;;;;;;4914920;29;20156;-77
2022/05/25 00:24:36;;;;;;;3.00;0.70;;;10.50;76.70;;;;;;4898990;29;20410;-77
2022/05/25 00:27:04;;;;;;;2.35;0.60;;;10.60;76.60;;;;;;4914741;29;20059;-77
2022/05/25 00:29:32;;;;;;;2.60;0.50;;;10.60;76.60;;;;;;4906055;29;20510;-76
2022/05/25 00:32:00;;;;;;;2.25;0.60;;;10.70;76.50;;;;;;4914897;29;20060;-77
2022/05/25 00:34:27;;;;;;;2.88;0.82;;;10.60;76.40;;;;;;4914623;29;20064;-77
2022/05/25 00:36:55;;;;;;;2.45;0.60;;;10.70;76.30;;;;;;4914798;29;20266;-77
2022/05/25 00:39:23;;;;;;;2.40;0.50;;;10.70;76.30;;;;;;4913965;29;20055;-77
2022/05/25 00:41:51;;;;;;;3.35;0.85;;;10.70;76.20;;;;;;4914108;29;20052;-77
2022/05/25 00:44:19;;;;;;;3.45;0.70;;;10.70;76.10;;;;;;4907683;29;20055;-76
2022/05/25 00:46:47;;;;;;;1.38;0.50;;;10.70;76.10;;;;;;4914851;29;20403;-76
2022/05/25 00:49:26;;;;;;;3.53;0.65;;;10.70;76.10;;;;;;4914224;29;20060;-77
2022/05/25 00:52:04;;;;;;;1.13;0.70;;;10.70;76.20;;;;;;4913470;29;20395;-77
2022/05/25 00:54:46;;;;;;;3.15;0.80;;;10.70;76.20;;;;;;4898229;29;20043;-77
2022/05/25 00:57:19;;;;;;;1.48;0.50;;;10.70;76.30;;;;;;4898031;29;20056;-77
2022/05/25 01:00:08;;;;;;;1.73;0.70;;;10.70;76.30;;;;;;4892132;29;20049;-77
2022/05/25 01:02:40;;;;;;;3.30;0.52;;;10.70;76.40;;;;;;4897990;29;20398;-78
2022/05/25 01:05:08;;;;;;;2.38;0.70;;;10.70;76.50;;;;;;4897709;29;20049;-77
2022/05/25 01:08:03;;;;;;;2.25;0.70;;;10.70;76.60;;;;;;4897510;29;20052;-77
2022/05/25 01:10:32;;;;;;;5.45;0.70;;;10.60;76.60;;;;;;4897376;29;20410;-77
2022/05/25 01:13:15;;;;;;;2.65;0.60;;;10.60;76.80;;;;;;4896769;29;20053;-76
2022/05/25 01:15:43;;;;;;;7.15;0.63;;;10.60;76.90;;;;;;4911826;29;20072;-77
2022/05/25 01:18:19;;;;;;;1.05;0.60;;;10.50;76.90;;;;;;4897485;29;20049;-77
2022/05/25 01:20:52;;;;;;;2.35;0.70;;;10.50;76.90;;;;;;4894579;29;20056;-77
2022/05/25 01:23:37;;;;;;;3.25;0.70;;;10.50;76.90;;;;;;4896804;29;20057;-76
2022/05/25 01:26:17;;;;;;;3.88;0.73;;;10.50;76.90;;;;;;4880214;29;20041;-77
2022/05/25 01:29:08;;;;;;;1.83;0.73;;;10.50;77.00;;;;;;4897263;29;20071;-76
2022/05/25 01:31:47;;;;;;;2.30;0.75;;;10.50;77.20;;;;;;4897311;29;20049;-77
2022/05/25 01:34:28;;;;;;;0.90;0.60;;;10.40;77.30;;;;;;4896841;29;20041;-77
2022/05/25 01:37:01;;;;;;;3.53;0.60;;;10.40;77.20;;;;;;4880216;29;20064;-77
2022/05/25 01:39:32;;;;;;;2.15;0.80;;;10.40;77.30;;;;;;4897035;29;20651;-77
2022/05/25 01:42:08;;;;;;;1.58;0.75;;;10.30;77.40;;;;;;4880891;29;20048;-76
2022/05/25 01:44:39;;;;;;;3.10;0.70;;;10.30;77.50;;;;;;4880392;29;20446;-76
2022/05/25 01:47:11;;;;;;;2.92;0.70;;;10.30;77.60;;;;;;4879538;29;20041;-76
2022/05/25 01:49:48;;;;;;;3.42;0.70;;;10.30;77.70;;;;;;4896933;29;20535;-76
2022/05/25 01:52:24;;;;;;;5.38;0.88;;;10.30;77.80;;;;;;4896240;29;20059;-76
2022/05/25 01:54:58;;;;;;;1.23;0.50;;;10.30;77.70;;;;;;4897407;29;20468;-76
2022/05/25 01:57:30;;;;;;;2.40;0.60;;;10.30;77.80;;;;;;4880266;29;20491;-76
2022/05/25 01:59:57;;;;;;;1.52;0.65;;;10.30;78.00;;;;;;4897102;29;20418;-76
2022/05/25 02:05:15;;;;;;;2.75;0.70;;;10.30;78.20;;;;;;4896304;29;20414;-76
2022/05/25 02:07:47;;;;;;;3.53;0.88;;;10.20;78.00;;;;;;4896755;29;20170;-76
2022/05/25 02:10:17;;;;;;;3.50;0.60;;;10.30;78.10;;;;;;4896728;29;20091;-76
2022/05/25 02:12:52;;;;;;;3.15;0.63;;;10.20;78.10;;;;;;4895352;29;20076;-76
2022/05/25 02:15:29;;;;;;;0.98;0.60;;;10.30;78.20;;;;;;4896236;29;20052;-76
2022/05/25 02:17:59;;;;;;;3.55;0.70;;;10.30;78.20;;;;;;4895443;29;20418;-77
2022/05/25 02:21:01;;;;;;;1.90;0.70;;;10.20;78.30;;;;;;4895225;29;20068;-77
2022/05/25 02:23:58;;;;;;;2.47;0.68;;;10.20;78.30;;;;;;4910842;29;20064;-77
2022/05/25 02:26:59;;;;;;;2.75;0.88;;;10.20;78.40;;;;;;4900582;29;20040;-76
2022/05/25 02:29:35;;;;;;;4.97;0.90;;;10.20;78.50;;;;;;4879629;29;20515;-76
2022/05/25 02:32:09;;;;;;;3.17;0.73;;;10.20;78.50;;;;;;4878602;29;20530;-77
2022/05/25 02:34:40;;;;;;;4.07;0.60;;;10.20;78.60;;;;;;4879064;29;20072;-77
2022/05/25 02:37:08;;;;;;;2.33;0.82;;;10.20;78.70;;;;;;4879571;29;20057;-77
2022/05/25 02:39:36;;;;;;;4.90;0.70;;;10.20;78.80;;;;;;4879309;29;20049;-77
2022/05/25 02:42:13;;;;;;;3.67;0.65;;;10.20;78.90;;;;;;4879883;29;20048;-76
2022/05/25 02:44:42;;;;;;;3.20;0.80;;;10.20;79.10;;;;;;4879048;29;20084;-77
2022/05/25 02:47:10;;;;;;;3.95;0.77;;;10.20;79.60;;;;;;4865798;29;20112;-77
2022/05/25 02:49:38;;;;;;;4.80;0.80;;;10.20;79.80;;;;;;4881132;29;20064;-77
2022/05/25 02:52:08;;;;;;;2.00;0.90;;;10.20;79.90;;;;;;4879025;29;20061;-77
2022/05/25 02:54:37;;;;;;;2.42;0.77;;;10.20;79.80;;;;;;4877730;29;20419;-77
2022/05/25 02:57:06;;;;;;;2.15;0.80;;;10.20;80.20;;;;;;4878897;29;20060;-77
2022/05/25 02:59:34;;;;;;;2.08;0.80;;;10.30;80.80;;;;;;4879230;29;20057;-77
2022/05/25 03:02:04;;;;;;;2.78;0.93;;;10.30;80.80;;;;;;4877977;29;20083;-78
2022/05/25 03:04:40;;;;;;;4.60;1.30;;;10.30;81.10;;;;;;4878164;29;20053;-77
2022/05/25 03:07:08;;;;;;;9.20;1.50;;;10.30;81.40;;;;;;4892477;29;20063;-77
2022/05/25 03:09:37;;;;;;;4.85;1.20;;;10.30;81.50;;;;;;4918335;29;20063;-77
2022/05/25 03:12:06;;;;;;;7.20;1.45;;;10.30;81.50;;;;;;4901822;29;20502;-77
2022/05/25 03:14:35;;;;;;;5.03;1.20;;;10.30;81.70;;;;;;4900990;29;20048;-77
2022/05/25 03:17:12;;;;;;;4.03;0.90;;;10.30;81.90;;;;;;4918019;29;20048;-77
2022/05/25 03:19:42;;;;;;;4.95;1.10;;;10.30;82.10;;;;;;4918750;29;20044;-77
2022/05/25 03:22:10;;;;;;;3.17;0.85;;;10.30;82.10;;;;;;4918630;29;20048;-78
2022/05/25 03:24:37;;;;;;;5.03;1.25;;;10.40;82.10;;;;;;4900487;29;20059;-77
2022/05/25 03:27:05;;;;;;;4.80;1.23;;;10.30;82.10;;;;;;4924880;29;20063;-78
2022/05/25 03:29:32;;;;;;;5.40;1.13;;;10.40;82.40;;;;;;4913291;29;20051;-79
2022/05/25 03:32:00;;;;;;;4.25;1.23;;;10.40;82.40;;;;;;4919406;29;20059;-76
2022/05/25 03:34:28;;;;;;;4.20;1.17;;;10.30;82.30;;;;;;4918738;29;20044;-77
2022/05/25 03:36:55;;;;;;;8.10;1.38;;;10.30;82.30;;;;;;4918416;29;20063;-77
2022/05/25 03:39:25;;;;;;;3.10;1.30;;;10.30;82.50;;;;;;4918412;29;20067;-77
2022/05/25 03:41:55;;;;;;;5.80;1.52;;;10.30;82.50;;;;;;4918139;29;20052;-78
2022/05/25 03:44:23;;;;;;;5.47;1.50;;;10.30;82.60;;;;;;4918200;29;20048;-77
2022/05/25 03:46:52;;;;;;;4.18;1.10;;;10.30;82.70;;;;;;4917745;29;20048;-77
2022/05/25 03:49:20;;;;;;;8.25;1.40;;;10.30;82.80;;;;;;4901167;29;20498;-77
2022/05/25 03:51:48;;;;;;;8.38;1.60;;;10.30;82.90;;;;;;4900821;29;20485;-78
2022/05/25 03:54:17;;;;;;;4.80;1.50;;;10.30;82.90;;;;;;4917537;29;20055;-77
2022/05/25 03:56:45;;;;;;;5.18;1.20;;;10.30;83.10;;;;;;4916330;29;20067;-77
2022/05/25 03:59:13;;;;;;;4.97;1.40;;;10.30;83.20;;;;;;4917798;29;20052;-77
2022/05/25 04:01:41;;;;;;;4.13;1.42;;;10.30;83.10;;;;;;4917662;29;20059;-79
2022/05/25 04:04:08;;;;;;;6.00;1.65;;;10.30;83.20;;;;;;4931491;29;20458;-77
2022/05/25 04:06:36;;;;;;;8.02;1.80;;;10.30;83.30;;;;;;4917991;29;20513;-77
2022/05/25 04:09:05;;;;;;;9.05;1.75;;;10.30;83.10;;;;;;4917556;29;20059;-78
2022/05/25 04:11:33;;;;;;;5.30;1.83;;;10.40;83.10;;;;;;4901060;29;20060;-77
2022/05/25 04:14:00;;;;;;;6.72;1.55;;;10.40;83.00;;;;;;4916988;29;20407;-77
2022/05/25 04:16:29;;;;;;;6.32;1.55;;;10.40;83.10;;;;;;4917529;29;20043;-77
2022/05/25 04:18:58;;;;;;;10.95;1.80;;;10.40;83.10;;;;;;4899851;29;20054;-77
2022/05/25 04:21:26;;;;;;;8.65;2.03;;;10.40;83.10;;;;;;4917681;29;20044;-78
2022/05/25 04:23:54;;;;;;;5.30;1.90;;;10.40;83.20;;;;;;4911866;29;20052;-77
2022/05/25 04:26:22;;;;;;;6.93;2.00;;;10.40;83.30;;;;;;4916943;29;20052;-77
2022/05/25 04:28:49;;;;;;;9.02;1.92;;;10.40;83.50;;;;;;4917261;29;20071;-77
2022/05/25 04:31:17;;;;;;;4.95;1.92;;;10.40;83.50;;;;;;4916601;29;20044;-77
2022/05/25 04:33:45;;;;;;;5.57;1.77;;;10.30;83.60;;;;;;4916317;29;20498;-77
2022/05/25 04:36:15;;;;;;;6.05;2.08;;;10.30;83.60;;;;;;4900382;29;20048;-77
2022/05/25 04:38:43;;;;;;;9.35;2.00;;;10.30;83.60;;;;;;4916698;29;20052;-76
2022/05/25 04:41:10;;;;;;;5.97;2.05;;;10.30;83.60;;;;;;4917394;29;20375;-77
2022/05/25 04:43:39;;;;;;;8.63;1.88;;;10.30;83.90;;;;;;4916630;29;20056;-76
2022/05/25 04:46:09;;;;;;;7.78;2.38;;;10.30;84.00;;;;;;4903131;29;20063;-78
2022/05/25 04:48:37;;;;;;;5.30;2.00;;;10.30;84.20;;;;;;4916941;29;20044;-77
2022/05/25 04:51:05;;;;;;;7.75;2.30;;;10.30;84.20;;;;;;4917248;29;20044;-77
2022/05/25 04:53:33;;;;;;;4.22;2.17;;;10.30;84.20;;;;;;4916100;29;20378;-77
2022/05/25 04:58:47;;;;;;;10.23;2.08;;;10.30;84.50;;;;;;4896719;29;20049;-77
2022/05/25 05:01:19;;;;;;;7.35;2.03;;;10.40;84.60;;;;;;4911628;29;20055;-77
2022/05/25 05:03:49;;;;;;;6.28;1.90;;;10.40;84.60;;;;;;4905825;29;20044;-77
2022/05/25 05:06:18;;;;;;;11.13;2.78;;;10.40;84.70;;;;;;4916302;29;20032;-77
2022/05/25 05:08:46;;;;;;;9.05;1.80;;;10.40;84.80;;;;;;4916551;29;20525;-77
2022/05/25 05:11:17;;;;;;;5.97;1.70;;;10.50;84.80;;;;;;4922019;29;20505;-77
2022/05/25 05:13:47;;;;;;;5.85;1.90;;;10.50;84.80;;;;;;4926030;29;20056;-77
2022/05/25 05:16:16;;;;;;;8.25;2.03;;;10.50;84.70;;;;;;4916468;29;20040;-77
2022/05/25 05:18:50;;;;;;;10.35;2.15;;;10.60;84.80;;;;;;4915433;29;20055;-77
2022/05/25 05:21:45;;;;;;;5.50;1.42;;;10.60;84.60;;;;;;4899680;29;20055;-77
2022/05/25 05:24:13;;;;;;;7.60;1.70;;;10.70;84.40;;;;;;4916324;29;20048;-77
2022/05/25 05:26:40;;;;;;;9.73;1.67;;;10.70;84.40;;;;;;4914370;29;20517;-77
2022/05/25 05:29:08;;;;;;;9.18;1.70;;;10.70;84.30;;;;;;4908854;29;20095;-78
2022/05/25 05:31:35;;;;;;;6.20;1.70;;;10.70;84.30;;;;;;4903963;29;20521;-77
2022/05/25 05:34:04;;;;;;;9.52;2.22;;;10.80;84.20;;;;;;4895675;29;20041;-77
2022/05/25 05:36:39;;;;;;;6.88;1.70;;;10.80;84.10;;;;;;4896609;29;20048;-78
2022/05/25 05:39:09;;;;;;;8.23;1.65;;;10.80;84.00;;;;;;4897475;29;20044;-77
2022/05/25 05:41:46;;;;;;;9.35;1.70;;;10.80;83.80;;;;;;4897136;29;20045;-77
2022/05/25 05:44:18;;;;;;;6.90;1.63;;;10.90;83.70;;;;;;4880187;29;20060;-78
2022/05/25 05:46:47;;;;;;;6.27;1.60;;;11.00;83.60;;;;;;4879823;29;20048;-77
2022/05/25 05:49:15;;;;;;;10.68;2.00;;;11.00;83.40;;;;;;4895809;29;20067;-78
2022/05/25 05:51:44;;;;;;;7.60;1.52;;;11.00;83.30;;;;;;4896646;29;20055;-78
2022/05/25 05:54:12;;;;;;;5.72;1.33;;;11.10;83.20;;;;;;4895957;29;20832;-78
2022/05/25 05:56:41;;;;;;;8.75;1.60;;;11.20;82.80;;;;;;4894682;29;20490;-78
2022/05/25 05:59:08;;;;;;;6.35;1.55;;;11.20;82.50;;;;;;4886439;29;20052;-78
2022/05/25 06:01:36;;;;;;;7.70;1.40;;;11.30;82.20;;;;;;4894734;29;20044;-76
2022/05/25 06:04:05;;;;;;;10.38;1.38;;;11.30;82.10;;;;;;4896859;29;20040;-77
2022/05/25 06:06:33;;;;;;;9.18;1.15;;;11.30;82.00;;;;;;4895482;29;20061;-77
2022/05/25 06:09:01;;;;;;;9.20;1.17;;;11.30;81.70;;;;;;4896795;29;20049;-77
2022/05/25 06:11:29;;;;;;;5.88;1.33;;;11.40;81.40;;;;;;4896235;29;20505;-77
2022/05/25 06:13:57;;;;;;;5.10;1.05;;;11.40;81.40;;;;;;4896346;29;20052;-77
2022/05/25 06:19:26;;;;;;;11.32;1.17;;;11.50;81.10;;;;;;4905381;29;20053;-78
2022/05/25 06:22:00;;;;;;;7.80;1.20;;;11.50;80.80;;;;;;4896916;29;20048;-78
2022/05/25 06:24:30;;;;;;;5.07;1.02;;;11.60;80.70;;;;;;4897449;29;20303;-78
2022/05/25 06:26:58;;;;;;;8.45;1.10;;;11.70;80.50;;;;;;4895775;29;20398;-77
2022/05/25 06:29:26;;;;;;;3.85;0.73;;;11.80;80.20;;;;;;4896824;29;20056;-78
2022/05/25 06:31:53;;;;;;;3.90;0.95;;;11.80;80.10;;;;;;4898705;29;20044;-78
2022/05/25 06:34:21;;;;;;;8.10;1.25;;;11.80;80.00;;;;;;4882842;29;20414;-78
2022/05/25 06:36:49;;;;;;;10.85;1.08;;;11.90;79.50;;;;;;4896842;29;20130;-82
2022/05/25 06:39:16;;;;;;;8.38;1.13;;;12.00;79.50;;;;;;4896829;29;20079;-78
2022/05/25 06:41:44;;;;;;;5.85;1.23;;;12.00;79.40;;;;;;4896997;29;20060;-78
2022/05/25 06:44:12;;;;;;;4.10;1.13;;;12.00;79.30;;;;;;4896392;29;20056;-78
2022/05/25 06:46:40;;;;;;;7.72;1.23;;;12.10;79.20;;;;;;4880024;29;20052;-78
2022/05/25 06:49:07;;;;;;;14.45;1.45;;;12.00;79.20;;;;;;4893117;29;20072;-78
2022/05/25 06:51:36;;;;;;;8.20;1.02;;;12.00;79.20;;;;;;4896658;29;20072;-79
2022/05/25 06:54:07;;;;;;;4.75;1.00;;;12.00;79.30;;;;;;4896696;29;20045;-81
2022/05/25 06:56:35;;;;;;;4.95;1.10;;;12.00;79.40;;;;;;4895901;29;20051;-78
2022/05/25 06:59:03;;;;;;;4.30;0.90;;;12.00;79.20;;;;;;4892467;29;20060;-79
2022/05/25 07:01:30;;;;;;;9.68;1.70;;;12.00;79.10;;;;;;4896072;29;20522;-79
2022/05/25 07:03:58;;;;;;;7.93;1.20;;;11.90;79.20;;;;;;4894647;29;20044;-79
2022/05/25 07:06:26;;;;;;;3.28;0.82;;;12.00;79.20;;;;;;4896691;29;20053;-79
2022/05/25 07:08:54;;;;;;;4.45;0.98;;;12.00;79.10;;;;;;4896171;29;20055;-78
2022/05/25 07:11:23;;;;;;;6.80;0.80;;;12.10;79.10;;;;;;4897950;29;20060;-79
2022/05/25 07:13:51;;;;;;;6.05;0.80;;;12.20;78.80;;;;;;4913003;29;20053;-78
2022/05/25 07:16:20;;;;;;;3.72;1.17;;;12.20;78.40;;;;;;4899705;29;20052;-79
2022/05/25 07:18:48;;;;;;;2.78;0.73;;;12.30;78.20;;;;;;4898909;29;20059;-78
2022/05/25 07:21:25;;;;;;;10.10;1.00;;;12.30;77.80;;;;;;4899549;29;20045;-79
2022/05/25 07:23:56;;;;;;;6.65;1.02;;;12.30;77.90;;;;;;4899063;29;20517;-79
2022/05/25 07:26:25;;;;;;;4.13;1.05;;;12.30;77.80;;;;;;4887943;29;20068;-79
2022/05/25 07:28:53;;;;;;;10.43;1.10;;;12.30;77.90;;;;;;4917376;29;20055;-79
2022/05/25 07:31:51;;;;;;;2.85;0.60;;;12.40;77.60;;;;;;4918431;29;20059;-79
2022/05/25 07:34:25;;;;;;;8.27;1.02;;;12.40;77.60;;;;;;4913822;29;20051;-79
2022/05/25 07:36:55;;;;;;;7.60;1.15;;;12.40;77.80;;;;;;4903090;29;20044;-79
2022/05/25 07:39:29;;;;;;;8.05;1.50;;;12.50;77.90;;;;;;4917525;29;20496;-79
2022/05/25 07:42:00;;;;;;;5.78;1.00;;;12.60;78.00;;;;;;4918070;29;20369;-79
2022/05/25 07:44:34;;;;;;;5.53;1.25;;;12.60;77.80;;;;;;4901095;29;20052;-79
2022/05/25 07:47:02;;;;;;;5.50;1.10;;;12.60;77.80;;;;;;4917685;29;20525;-79
2022/05/25 07:49:30;;;;;;;4.25;0.80;;;12.60;77.80;;;;;;4918306;29;20044;-79
2022/05/25 07:51:58;;;;;;;6.80;1.20;;;12.60;77.80;;;;;;4918162;29;20052;-79
2022/05/25 07:54:26;;;;;;;6.85;0.90;;;12.70;77.80;;;;;;4917758;29;20405;-79
2022/05/25 07:56:54;;;;;;;5.97;1.00;;;12.70;77.80;;;;;;4927805;29;20048;-79
2022/05/25 07:59:21;;;;;;;5.38;0.77;;;12.70;77.80;;;;;;4917721;29;20055;-78
2022/05/25 08:07:33;;;;;;;2.25;0.40;;;12.80;77.60;;;;;;4917319;29;20052;-79
2022/05/25 08:10:06;;;;;;;4.28;0.75;;;12.80;77.70;;;;;;4917645;29;20051;-79
2022/05/25 08:12:39;;;;;;;2.42;0.28;;;12.90;77.90;;;;;;4917965;29;20071;-79
2022/05/25 08:15:09;;;;;;;3.28;0.40;;;12.90;77.80;;;;;;4905258;29;20036;-79
2022/05/25 08:17:36;;;;;;;0.50;0.10;;;13.00;77.60;;;;;;4917431;29;20525;-79
2022/05/25 08:20:05;;;;;;;2.55;0.20;;;13.10;77.40;;;;;;4917177;29;20497;-79
2022/05/25 08:22:33;;;;;;;1.40;0.25;;;13.10;77.70;;;;;;4917048;29;20048;-79
2022/05/25 08:25:00;;;;;;;1.00;0.30;;;13.00;77.70;;;;;;4907067;29;20052;-79
2022/05/25 08:27:28;;;;;;;0.93;0.10;;;13.10;77.70;;;;;;4915928;29;20078;-78
2022/05/25 08:29:55;;;;;;;1.13;0.20;;;13.10;77.90;;;;;;4917854;29;20044;-78
2022/05/25 08:32:23;;;;;;;1.33;0.20;;;13.10;78.00;;;;;;4917380;29;20136;-79
2022/05/25 08:34:51;;;;;;;2.00;0.30;;;13.10;78.10;;;;;;4900524;29;20064;-79
2022/05/25 08:37:18;;;;;;;0.45;0.20;;;13.10;78.30;;;;;;4917600;29;20497;-78
2022/05/25 08:39:46;;;;;;;0.38;0.10;;;13.20;78.30;;;;;;4921112;29;20063;-78
2022/05/25 08:42:18;;;;;;;1.58;0.10;;;13.30;78.20;;;;;;4916660;29;20047;-77
2022/05/25 08:44:48;;;;;;;1.65;0.10;;;13.30;78.20;;;;;;4917342;29;20040;-80
2022/05/25 08:47:16;;;;;;;0.82;0.20;;;13.40;78.30;;;;;;4917530;29;20047;-78
2022/05/25 08:49:46;;;;;;;0.98;0.10;;;13.50;78.00;;;;;;4916742;29;20060;-78
2022/05/25 08:52:30;;;;;;;0.28;0.10;;;13.50;77.90;;;;;;4900185;29;20052;-78
2022/05/25 08:55:04;;;;;;;2.20;0.20;;;13.50;77.80;;;;;;4916911;29;20056;-79
2022/05/25 08:58:00;;;;;;;0.13;0.00;;;13.50;78.00;;;;;;4918534;29;20052;-79
2022/05/25 09:00:28;;;;;;;0.10;0.10;;;13.50;78.30;;;;;;4918468;29;20059;-78
2022/05/25 09:03:15;;;;;;;0.75;0.20;;;13.60;78.30;;;;;;4919464;29;20048;-80
2022/05/25 09:05:57;;;;;;;0.90;0.20;;;13.70;78.10;;;;;;4917086;29;20055;-78
2022/05/25 09:08:50;;;;;;;1.95;0.30;;;13.80;78.10;;;;;;4917050;29;20044;-77
2022/05/25 09:11:25;;;;;;;0.30;0.03;;;13.90;78.00;;;;;;4917059;29;20138;-78
2022/05/25 09:14:00;;;;;;;1.63;0.30;;;14.20;77.90;;;;;;4921087;29;20056;-78
2022/05/25 09:16:31;;;;;;;3.50;0.30;;;14.30;77.40;;;;;;4916986;29;20243;-78
2022/05/25 09:19:10;;;;;;;0.13;0.08;;;14.30;76.90;;;;;;4899640;29;20059;-78
2022/05/25 09:21:47;;;;;;;1.95;0.30;;;14.40;77.00;;;;;;4934054;29;20047;-78
2022/05/25 09:24:20;;;;;;;1.63;0.30;;;14.40;76.70;;;;;;4914090;29;20048;-78
2022/05/25 09:26:48;;;;;;;0.38;0.10;;;14.40;76.70;;;;;;4914035;29;20059;-79
2022/05/25 09:29:15;;;;;;;1.45;0.10;;;14.50;76.60;;;;;;4897127;29;20059;-78
2022/05/25 09:31:55;;;;;;;3.25;0.47;;;14.60;76.70;;;;;;4897290;29;20057;-79
2022/05/25 09:34:42;;;;;;;0.17;0.10;;;14.60;76.10;;;;;;4896877;29;20044;-79
2022/05/25 09:37:36;;;;;;;2.60;0.20;;;14.60;76.40;;;;;;4896332;29;20049;-79
2022/05/25 09:40:17;;;;;;;1.08;0.15;;;14.60;76.50;;;;;;4897387;29;20498;-78
2022/05/25 09:42:51;;;;;;;1.15;0.30;;;14.70;76.90;;;;;;4897853;29;20040;-79
2022/05/25 09:45:19;;;;;;;1.40;0.40;;;14.70;77.20;;;;;;4897504;29;20517;-79
2022/05/25 09:47:49;;;;;;;1.45;0.38;;;14.80;77.00;;;;;;4897588;29;20049;-79
2022/05/25 09:50:29;;;;;;;1.30;0.50;;;14.80;76.80;;;;;;4892774;29;20623;-78
2022/05/25 09:53:01;;;;;;;0.75;0.20;;;14.90;77.00;;;;;;4908562;29;20442;-78
2022/05/25 09:55:34;;;;;;;3.20;0.50;;;15.00;76.30;;;;;;4889696;29;20041;-78
2022/05/25 09:58:06;;;;;;;1.13;0.20;;;15.00;76.70;;;;;;4897190;29;20132;-78
2022/05/25 10:00:37;;;;;;;0.60;0.10;;;14.90;76.30;;;;;;4899611;29;20506;-77
2022/05/25 10:03:21;;;;;;;0.40;0.10;;;14.90;76.80;;;;;;4896794;29;20045;-77
2022/05/25 10:05:53;;;;;;;2.92;0.32;;;15.10;76.30;;;;;;4896820;29;20052;-77
2022/05/25 10:08:27;;;;;;;1.53;0.60;;;15.30;76.40;;;;;;4896535;29;20044;-77
2022/05/25 10:10:59;;;;;;;2.20;0.10;;;15.40;76.10;;;;;;4897178;29;20055;-78
2022/05/25 10:13:36;;;;;;;2.75;0.43;;;15.60;75.70;;;;;;4880044;29;20059;-77
2022/05/25 10:16:20;;;;;;;1.05;0.50;;;15.70;74.90;;;;;;4896997;29;20072;-77
2022/05/25 10:18:48;;;;;;;1.65;0.20;;;15.70;74.50;;;;;;4896506;29;20056;-77
2022/05/25 10:21:47;;;;;;;0.22;0.20;;;15.60;74.60;;;;;;4896451;29;20063;-77
2022/05/25 10:24:16;;;;;;;2.35;0.50;;;15.60;75.20;;;;;;4892829;29;20055;-77
2022/05/25 10:26:50;;;;;;;1.45;0.30;;;15.60;75.90;;;;;;4898602;29;20053;-78
2022/05/25 10:36:47;;;;;;;4.00;0.70;;;16.00;75.80;;;;;;4917532;29;20369;-77
2022/05/25 10:38:42;;;;;;;1.95;0.57;;;16.10;75.50;;;;;;4904772;29;20491;-78
2022/05/25 10:44:04;;;;;;;3.72;0.63;;;16.00;76.30;;;;;;4915862;29;20498;-78
2022/05/25 10:46:31;;;;;;;2.03;0.30;;;15.90;76.30;;;;;;4902060;29;20059;-78
2022/05/25 10:49:22;;;;;;;3.30;0.63;;;15.90;76.10;;;;;;4919177;29;20060;-77
2022/05/25 10:51:54;;;;;;;3.80;0.50;;;15.80;77.10;;;;;;4915263;29;20055;-78
2022/05/25 10:54:51;;;;;;;4.75;0.60;;;15.80;76.40;;;;;;4902543;29;20052;-77
2022/05/25 10:57:33;;;;;;;3.65;0.50;;;15.80;77.40;;;;;;4919658;29;20063;-78
2022/05/25 11:00:38;;;;;;;2.05;0.50;;;15.90;77.60;;;;;;4919328;29;20067;-78
2022/05/25 11:03:14;;;;;;;5.28;0.90;;;16.20;77.90;;;;;;4918872;29;20040;-78
2022/05/25 11:06:21;;;;;;;1.92;0.32;;;16.60;76.40;;;;;;4919004;29;20063;-77
2022/05/25 11:09:05;;;;;;;1.15;0.35;;;16.60;73.90;;;;;;4901923;29;20067;-79
2022/05/25 11:11:43;;;;;;;;;;;16.50;73.70;;;;;;4919049;29;20067;-78
2022/05/25 11:14:36;;;;;;;2.28;0.40;;;16.30;72.80;;;;;;4918505;29;19927;-78
2022/05/25 11:17:30;;;;;;;1.77;0.50;;;16.20;74.40;;;;;;4918692;29;20064;-78
2022/05/25 11:20:10;;;;;;;4.95;0.73;;;16.20;75.20;;;;;;4918977;29;20394;-78
2022/05/25 11:22:43;;;;;;;3.28;0.60;;;16.30;75.60;;;;;;4918663;29;20055;-78
2022/05/25 11:25:35;;;;;;;5.07;1.10;;;16.50;73.90;;;;;;4918576;29;20383;-78
2022/05/25 11:28:21;;;;;;;2.15;0.55;;;16.80;73.40;;;;;;4918244;29;20494;-79
2022/05/25 11:31:36;;;;;;;1.17;0.38;;;17.30;71.10;;;;;;4918346;29;20091;-78
2022/05/25 11:34:27;;;;;;;6.72;0.73;;;17.40;69.10;;;;;;4896693;29;20057;-78
2022/05/25 11:37:41;;;;;;;2.58;0.82;;;17.70;70.00;;;;;;4897416;29;20071;-79
2022/05/25 11:40:16;;;;;;;;;;;18.20;68.50;;;;;;4891312;29;20057;-83
2022/05/25 11:43:24;;;;;;;6.03;0.43;;;18.30;66.00;;;;;;4862641;29;20052;-79
2022/05/25 11:46:30;;;;;;;4.57;0.82;;;18.30;65.40;;;;;;4872535;29;20057;-78
2022/05/25 11:49:46;;;;;;;3.42;0.60;;;18.20;63.50;;;;;;4867232;29;20088;-79
2022/05/25 11:52:14;;;;;;;10.93;0.55;;;18.10;60.40;;;;;;4890808;29;20419;-79
2022/05/25 11:54:57;;;;;;;7.55;1.13;;;17.90;60.00;;;;;;4877675;29;20071;-79
2022/05/25 11:57:43;;;;;;;10.35;1.00;;;17.80;61.60;;;;;;4877715;29;20052;-79
2022/05/25 12:00:29;;;;;;;2.63;0.70;;;17.80;61.60;;;;;;4880180;29;20053;-79
2022/05/25 12:03:37;;;;;;;4.10;0.40;;;17.80;61.10;;;;;;4880158;29;20045;-79
2022/05/25 12:06:06;;;;;;;8.43;0.98;;;17.80;61.50;;;;;;4878168;29;20053;-79
2022/05/25 12:08:41;;;;;;;6.50;1.25;;;17.80;61.70;;;;;;4910540;29;20058;-79
2022/05/25 12:11:26;;;;;;;2.10;0.70;;;17.50;62.50;;;;;;4926851;29;20048;-79
2022/05/25 12:14:36;;;;;;;7.53;1.00;;;17.40;63.50;;;;;;4931789;29;20059;-79
2022/05/25 12:17:19;;;;;;;8.48;0.98;;;17.30;63.70;;;;;;4886555;29;20055;-80
2022/05/25 12:19:54;;;;;;;9.32;1.10;;;17.10;64.80;;;;;;4911285;29;20063;-78
2022/05/25 12:22:29;;;;;;;6.38;0.60;;;16.90;67.20;;;;;;4895970;29;20431;-78
2022/05/25 12:25:09;;;;;;;4.38;0.68;;;16.80;69.20;;;;;;4895127;29;20478;-78
2022/05/25 12:27:44;;;;;;;4.47;0.95;;;16.80;69.90;;;;;;4892988;29;20057;-79
2022/05/25 12:30:20;;;;;;;5.82;0.73;;;16.90;70.30;;;;;;4885957;29;20459;-78
2022/05/25 12:32:48;;;;;;;4.47;0.70;;;17.10;69.40;;;;;;4884680;29;20060;-76
2022/05/25 12:35:16;;;;;;;3.22;0.43;;;17.30;68.40;;;;;;4882507;29;20053;-78
2022/05/25 12:37:52;;;;;;;6.40;1.45;;;17.30;67.20;;;;;;4879664;29;20053;-78
2022/05/25 12:40:26;;;;;;;3.00;0.75;;;17.20;67.30;;;;;;4878094;29;20053;-78
2022/05/25 12:42:54;;;;;;;8.02;0.98;;;17.00;66.60;;;;;;4869576;29;20053;-78
2022/05/25 12:48:33;;;;;;;6.45;1.05;;;17.00;67.50;;;;;;4875880;29;20056;-78
2022/05/25 12:51:26;;;;;;;3.08;0.47;;;17.20;67.20;;;;;;4892080;29;20068;-77
2022/05/25 12:53:54;;;;;;;1.65;0.60;;;17.30;65.60;;;;;;4909645;29;20489;-78
2022/05/25 12:56:24;;;;;;;3.53;0.70;;;17.20;65.10;;;;;;4882166;29;20063;-77
2022/05/25 12:59:04;;;;;;;0.73;0.22;;;17.00;64.90;;;;;;4905465;29;20048;-78
2022/05/25 13:01:38;;;;;;;2.60;0.30;;;16.80;65.20;;;;;;4894276;29;20053;-78
2022/05/25 13:04:50;;;;;;;5.78;0.70;;;16.70;65.50;;;;;;4897986;29;20040;-77
2022/05/25 13:07:33;;;;;;;4.72;0.80;;;16.70;65.70;;;;;;4902836;29;20061;-78
2022/05/25 13:10:05;;;;;;;1.30;0.30;;;16.80;64.80;;;;;;4908439;29;20056;-79
2022/05/25 13:12:39;;;;;;;4.55;0.65;;;17.20;64.00;;;;;;4902383;29;20056;-78
2022/05/25 13:15:17;;;;;;;1.30;0.55;;;18.20;63.70;;;;;;4892933;29;20073;-79
2022/05/25 13:17:47;;;;;;;0.68;0.30;;;19.30;59.00;;;;;;4895764;29;20064;-78
2022/05/25 13:20:26;;;;;;;2.45;0.70;;;19.80;56.70;;;;;;4897226;29;20052;-79
2022/05/25 13:22:55;;;;;;;6.55;0.50;;;20.20;54.70;;;;;;4878888;29;20511;-78
2022/05/25 13:25:30;;;;;;;1.38;0.25;;;20.20;54.20;;;;;;4893778;29;20048;-78
2022/05/25 13:27:58;;;;;;;2.03;0.55;;;20.00;53.90;;;;;;4911524;29;20048;-78
2022/05/25 13:30:47;;;;;;;4.32;0.50;;;19.80;54.80;;;;;;4897082;29;20056;-79
2022/05/25 13:33:26;;;;;;;1.90;0.82;;;19.70;54.50;;;;;;4896747;29;20060;-79
2022/05/25 13:36:15;;;;;;;6.70;0.52;;;19.60;55.70;;;;;;4897620;29;20049;-77
2022/05/25 13:39:09;;;;;;;1.73;0.40;;;19.60;54.90;;;;;;4896370;29;20068;-79
2022/05/25 13:41:45;;;;;;;3.05;0.73;;;19.30;55.40;;;;;;4896633;29;20052;-79
2022/05/25 13:44:17;;;;;;;3.95;0.50;;;19.20;56.00;;;;;;4897990;29;20052;-79
2022/05/25 13:46:45;;;;;;;1.65;0.50;;;19.00;56.00;;;;;;4892799;29;20056;-79
2022/05/25 13:49:36;;;;;;;6.43;0.70;;;18.50;57.20;;;;;;4897506;29;20478;-78
2022/05/25 13:52:22;;;;;;;1.05;0.40;;;18.00;58.90;;;;;;4897038;29;20052;-78
2022/05/25 13:54:55;;;;;;;3.90;0.75;;;17.70;60.50;;;;;;4864438;29;20063;-78